Time;durP1;ratioP1;P1;durP2;ratioP2;P2;SDS_P1;SDS_P2;PMS_P1;PMS_P2;Temp;Humidity;BMP_temperature;BMP_pressure;BME280_temperature;BME280_humidity;BME280_pressure;Samples;Min_cycle;Max_cycle;Signal;HPM_P1;HPM_P2
2023/05/27 00:00:06;;;;;;;17.40;3.60;;;10.50;99.90;;;;;;4974459;28;20045;-64
2023/05/27 00:02:32;;;;;;;16.15;3.90;;;10.40;99.90;;;;;;4975112;28;20029;-65
2023/05/27 00:04:58;;;;;;;25.48;4.30;;;10.40;99.90;;;;;;4975853;28;20117;-64
2023/05/27 00:07:23;;;;;;;21.67;4.32;;;10.30;99.90;;;;;;4975571;28;20113;-64
2023/05/27 00:09:49;;;;;;;14.50;3.38;;;10.30;99.90;;;;;;4968336;28;20551;-63
2023/05/27 00:12:15;;;;;;;17.77;3.55;;;10.20;99.90;;;;;;4967116;28;20042;-65
2023/05/27 00:14:40;;;;;;;13.57;3.90;;;10.20;99.90;;;;;;4982594;28;20105;-64
2023/05/27 00:17:08;;;;;;;11.80;3.63;;;10.10;99.90;;;;;;4983668;28;20128;-64
2023/05/27 00:19:34;;;;;;;17.75;4.22;;;10.00;99.90;;;;;;4984169;28;20026;-64
2023/05/27 00:22:00;;;;;;;12.18;3.38;;;9.90;99.90;;;;;;4986591;28;20029;-64
2023/05/27 00:24:26;;;;;;;22.00;5.03;;;9.90;99.90;;;;;;4987473;28;20261;-65
2023/05/27 00:26:51;;;;;;;13.13;3.50;;;9.90;99.90;;;;;;4985534;28;20029;-64
2023/05/27 00:29:17;;;;;;;18.73;4.00;;;9.90;99.90;;;;;;4975066;28;20045;-65
2023/05/27 00:31:43;;;;;;;18.58;4.03;;;9.80;99.90;;;;;;4986729;28;20050;-64
2023/05/27 00:34:08;;;;;;;16.45;3.38;;;9.80;99.90;;;;;;4982704;28;20030;-64
2023/05/27 00:36:35;;;;;;;18.17;4.07;;;9.80;99.90;;;;;;4988893;28;20023;-64
2023/05/27 00:39:01;;;;;;;18.27;3.70;;;9.70;99.90;;;;;;4981320;28;20026;-64
2023/05/27 00:41:26;;;;;;;15.35;3.60;;;9.60;99.90;;;;;;4985573;28;20476;-65
2023/05/27 00:43:53;;;;;;;17.67;4.55;;;9.50;99.90;;;;;;4971796;28;20046;-64
2023/05/27 00:46:19;;;;;;;11.25;3.10;;;9.40;99.90;;;;;;4984174;28;20046;-65
2023/05/27 00:48:47;;;;;;;12.23;4.38;;;9.30;99.90;;;;;;4974385;28;20022;-65
2023/05/27 00:51:12;;;;;;;16.98;4.20;;;9.20;99.90;;;;;;4980695;28;20023;-64
2023/05/27 00:53:42;;;;;;;15.75;3.97;;;9.10;99.90;;;;;;4989486;28;20038;-65
2023/05/27 00:56:15;;;;;;;16.55;3.80;;;9.00;99.90;;;;;;4983491;28;20088;-65
2023/05/27 00:58:41;;;;;;;16.65;3.95;;;8.90;99.90;;;;;;4974699;28;20105;-65
2023/05/27 01:01:07;;;;;;;14.25;4.15;;;8.90;99.90;;;;;;4988438;28;20055;-65
2023/05/27 01:03:34;;;;;;;20.90;3.50;;;8.80;99.90;;;;;;4989403;28;20068;-64
2023/05/27 01:06:31;;;;;;;17.67;4.00;;;8.80;99.90;;;;;;4989030;28;20050;-65
2023/05/27 01:09:08;;;;;;;24.15;4.28;;;8.70;99.90;;;;;;4975757;28;20050;-64
2023/05/27 01:11:51;;;;;;;16.08;3.08;;;8.70;99.90;;;;;;4983587;28;20117;-65
2023/05/27 01:14:20;;;;;;;32.15;5.22;;;8.60;99.90;;;;;;4984085;28;20628;-65
2023/05/27 01:16:46;;;;;;;17.20;3.97;;;8.60;99.90;;;;;;4989260;28;20488;-64
2023/05/27 01:19:30;;;;;;;14.40;3.20;;;8.70;99.90;;;;;;4987018;28;20598;-64
2023/05/27 01:21:58;;;;;;;21.50;3.58;;;8.80;99.90;;;;;;4987655;28;20396;-65
2023/05/27 01:24:24;;;;;;;20.40;4.30;;;8.90;99.90;;;;;;4991076;28;20566;-64
2023/05/27 01:26:49;;;;;;;14.18;3.55;;;8.80;99.90;;;;;;4989032;28;20022;-64
2023/05/27 01:29:15;;;;;;;18.48;3.55;;;8.80;99.90;;;;;;4992547;28;20026;-64
2023/05/27 01:31:57;;;;;;;10.32;3.17;;;8.80;99.90;;;;;;4991762;28;20022;-65
2023/05/27 01:34:30;;;;;;;14.48;3.33;;;8.70;99.90;;;;;;4990137;28;20117;-64
2023/05/27 01:37:02;;;;;;;16.30;4.38;;;8.70;99.90;;;;;;4972171;28;20026;-65
2023/05/27 01:39:28;;;;;;;13.63;3.55;;;8.60;99.90;;;;;;4988154;28;20027;-64
2023/05/27 01:41:55;;;;;;;20.60;4.80;;;8.50;99.90;;;;;;4989203;28;20038;-64
2023/05/27 01:44:21;;;;;;;16.52;3.75;;;8.40;99.90;;;;;;4986443;28;20484;-64
2023/05/27 01:46:46;;;;;;;15.07;4.45;;;8.30;99.90;;;;;;4992134;28;20038;-64
2023/05/27 01:49:13;;;;;;;20.27;4.43;;;8.20;99.90;;;;;;4991660;28;20022;-65
2023/05/27 01:51:38;;;;;;;16.33;5.03;;;8.20;99.90;;;;;;4993305;28;20037;-65
2023/05/27 01:54:04;;;;;;;17.38;4.30;;;8.10;99.90;;;;;;4991366;28;20030;-65
2023/05/27 01:56:29;;;;;;;17.55;5.50;;;8.00;99.90;;;;;;4989385;28;20504;-65
2023/05/27 01:58:55;;;;;;;22.30;4.47;;;8.00;99.90;;;;;;4972800;28;20085;-64
2023/05/27 02:01:22;;;;;;;14.80;3.90;;;7.90;99.90;;;;;;4990679;28;20451;-65
2023/05/27 02:03:47;;;;;;;11.13;4.70;;;7.90;99.90;;;;;;4987117;28;20081;-64
2023/05/27 02:06:13;;;;;;;19.75;4.07;;;7.80;99.90;;;;;;4978521;28;20022;-64
2023/05/27 02:08:39;;;;;;;13.57;4.82;;;7.80;99.90;;;;;;4992126;28;20046;-65
2023/05/27 02:11:04;;;;;;;19.67;4.53;;;7.80;99.90;;;;;;4991328;28;20101;-65
2023/05/27 02:13:30;;;;;;;19.38;4.18;;;7.90;99.90;;;;;;4988372;28;20026;-65
2023/05/27 02:15:56;;;;;;;16.75;4.43;;;8.00;99.90;;;;;;4985308;28;20454;-64
2023/05/27 02:18:21;;;;;;;26.92;5.50;;;8.00;99.90;;;;;;4987456;28;20503;-65
2023/05/27 02:20:47;;;;;;;17.10;4.28;;;8.00;99.90;;;;;;4988988;28;20031;-65
2023/05/27 02:23:13;;;;;;;15.40;4.90;;;8.00;99.90;;;;;;4990225;28;20049;-65
2023/05/27 02:25:38;;;;;;;23.77;5.30;;;7.90;99.90;;;;;;4990560;28;20039;-65
2023/05/27 02:28:04;;;;;;;17.75;3.83;;;7.80;99.90;;;;;;4989760;28;20460;-65
2023/05/27 02:30:31;;;;;;;23.50;4.75;;;7.70;99.90;;;;;;4989406;28;20442;-65
2023/05/27 02:32:57;;;;;;;20.52;5.10;;;7.70;99.90;;;;;;4987418;28;20030;-65
2023/05/27 02:35:22;;;;;;;15.60;4.25;;;7.70;99.90;;;;;;4983130;28;20061;-66
2023/05/27 02:37:48;;;;;;;18.95;4.85;;;7.60;99.90;;;;;;4984283;28;20104;-65
2023/05/27 02:40:34;;;;;;;16.90;4.65;;;7.50;99.90;;;;;;4986927;28;20058;-62
2023/05/27 02:42:59;;;;;;;14.95;4.35;;;7.50;99.90;;;;;;4988824;28;20043;-64
2023/05/27 02:45:25;;;;;;;13.88;3.67;;;7.40;99.90;;;;;;4989301;28;20074;-65
2023/05/27 02:47:51;;;;;;;11.38;4.10;;;7.40;99.90;;;;;;4988561;28;20014;-64
2023/05/27 02:50:16;;;;;;;18.58;6.13;;;7.40;99.90;;;;;;4991962;28;20034;-64
2023/05/27 02:52:42;;;;;;;20.60;4.18;;;7.30;99.90;;;;;;4988899;28;20026;-65
2023/05/27 02:55:08;;;;;;;15.15;4.22;;;7.30;99.90;;;;;;4989868;28;20030;-65
2023/05/27 02:57:33;;;;;;;17.35;4.22;;;7.30;99.90;;;;;;4988168;28;20062;-65
2023/05/27 02:59:59;;;;;;;27.05;5.22;;;7.40;99.90;;;;;;4975209;28;20042;-65
2023/05/27 03:02:25;;;;;;;15.32;5.10;;;7.50;99.90;;;;;;4988784;28;20097;-64
2023/05/27 03:04:50;;;;;;;18.60;4.07;;;7.60;99.90;;;;;;4990925;28;20019;-65
2023/05/27 03:07:16;;;;;;;18.25;4.70;;;7.60;99.90;;;;;;4990357;28;20026;-65
2023/05/27 03:09:41;;;;;;;17.45;4.25;;;7.60;99.90;;;;;;4986510;28;20547;-64
2023/05/27 03:12:07;;;;;;;22.58;4.22;;;7.60;99.90;;;;;;4988827;28;20054;-64
2023/05/27 03:14:33;;;;;;;25.65;4.25;;;7.60;99.90;;;;;;4990311;28;20029;-64
2023/05/27 03:16:58;;;;;;;16.60;3.95;;;7.60;99.90;;;;;;4985190;28;20019;-64
2023/05/27 03:19:24;;;;;;;24.40;4.82;;;7.60;99.90;;;;;;4987840;28;20519;-65
2023/05/27 03:21:50;;;;;;;18.65;4.68;;;7.60;99.90;;;;;;4986915;28;20026;-65
2023/05/27 03:24:16;;;;;;;15.95;3.90;;;7.60;99.90;;;;;;4987159;28;20057;-65
2023/05/27 03:26:42;;;;;;;20.80;4.63;;;7.50;99.90;;;;;;4984779;28;20038;-66
2023/05/27 03:29:07;;;;;;;22.80;5.15;;;7.50;99.90;;;;;;4986383;28;20105;-65
2023/05/27 03:31:33;;;;;;;23.48;5.57;;;7.50;99.90;;;;;;4987147;28;20019;-66
2023/05/27 03:33:59;;;;;;;16.33;4.07;;;7.60;99.90;;;;;;4989992;28;20381;-65
2023/05/27 03:36:24;;;;;;;12.10;3.83;;;7.60;99.90;;;;;;4989031;28;20026;-66
2023/05/27 03:38:50;;;;;;;23.10;5.35;;;7.60;99.90;;;;;;4990739;28;20023;-65
2023/05/27 03:41:16;;;;;;;16.35;4.28;;;7.70;99.90;;;;;;4990693;28;20041;-65
2023/05/27 03:43:41;;;;;;;17.23;4.88;;;7.70;99.90;;;;;;4986758;28;20030;-66
2023/05/27 03:46:07;;;;;;;12.88;5.03;;;7.70;99.90;;;;;;4989427;28;20022;-65
2023/05/27 03:48:33;;;;;;;14.45;4.30;;;7.70;99.90;;;;;;4989342;28;20027;-65
2023/05/27 03:50:58;;;;;;;15.48;4.38;;;7.70;99.90;;;;;;4987908;28;20025;-65
2023/05/27 03:53:24;;;;;;;14.73;3.90;;;7.70;99.90;;;;;;4990698;28;20029;-65
2023/05/27 03:55:50;;;;;;;16.30;4.18;;;7.70;99.90;;;;;;4988602;28;20057;-65
2023/05/27 03:58:16;;;;;;;18.35;4.78;;;7.70;99.90;;;;;;4989916;28;20035;-65
2023/05/27 04:00:42;;;;;;;17.00;4.18;;;7.70;99.90;;;;;;4969071;28;20046;-65
2023/05/27 04:03:08;;;;;;;16.65;4.43;;;7.70;99.90;;;;;;4988649;28;20034;-66
2023/05/27 04:05:34;;;;;;;12.30;3.47;;;7.80;99.90;;;;;;4987379;28;20025;-65
2023/05/27 04:08:02;;;;;;;21.65;4.80;;;7.70;99.90;;;;;;4988905;28;20029;-65
2023/05/27 04:10:27;;;;;;;17.27;3.85;;;7.70;99.90;;;;;;4989030;28;20041;-65
2023/05/27 04:12:53;;;;;;;14.15;3.83;;;7.80;99.90;;;;;;4987477;28;20056;-65
2023/05/27 04:15:18;;;;;;;16.15;4.75;;;7.80;99.90;;;;;;4988123;28;20033;-63
2023/05/27 04:17:44;;;;;;;18.00;4.78;;;7.80;99.90;;;;;;4979804;28;20679;-64
2023/05/27 04:20:13;;;;;;;29.73;4.75;;;7.80;99.90;;;;;;4968239;28;20039;-64
2023/05/27 04:22:42;;;;;;;20.52;3.65;;;7.90;99.90;;;;;;4980387;28;20058;-65
2023/05/27 04:25:08;;;;;;;22.73;4.70;;;7.90;99.90;;;;;;4957283;28;20518;-64
2023/05/27 04:27:34;;;;;;;13.07;3.75;;;8.00;99.90;;;;;;4982419;28;20424;-64
2023/05/27 04:30:00;;;;;;;17.42;5.05;;;8.00;99.90;;;;;;4985523;28;20154;-65
2023/05/27 04:32:32;;;;;;;11.15;2.92;;;8.30;99.90;;;;;;4988177;28;20065;-64
2023/05/27 04:34:59;;;;;;;7.80;3.08;;;9.10;99.90;;;;;;4989746;28;20023;-65
2023/05/27 04:37:28;;;;;;;11.63;5.00;;;10.00;99.90;;;;;;4990953;28;20248;-65
2023/05/27 04:39:56;;;;;;;17.20;4.55;;;10.90;99.90;;;;;;4991077;28;20049;-65
2023/05/27 04:42:23;;;;;;;12.57;3.75;;;11.80;99.90;;;;;;4987444;28;20057;-65
2023/05/27 04:44:50;;;;;;;10.98;3.75;;;12.40;99.90;;;;;;4980944;28;20033;-64
2023/05/27 04:47:16;;;;;;;9.73;3.53;;;12.80;99.90;;;;;;4985946;28;20510;-65
2023/05/27 04:49:41;;;;;;;9.10;3.08;;;13.40;99.90;;;;;;4974960;28;20113;-64
2023/05/27 04:52:07;;;;;;;14.23;3.40;;;14.00;99.90;;;;;;4972282;28;20034;-65
2023/05/27 04:54:33;;;;;;;13.32;3.70;;;14.50;99.50;;;;;;4989068;28;20061;-65
2023/05/27 04:56:59;;;;;;;10.75;3.50;;;15.10;97.10;;;;;;4988936;28;20022;-65
2023/05/27 04:59:35;;;;;;;16.33;4.53;;;15.50;96.30;;;;;;4976254;28;20093;-67
2023/05/27 05:02:10;;;;;;;14.63;4.55;;;15.60;95.80;;;;;;4989845;28;20392;-65
2023/05/27 05:04:39;;;;;;;12.77;4.07;;;16.70;93.90;;;;;;4987630;28;20060;-65
2023/05/27 05:07:04;;;;;;;11.27;4.15;;;17.40;92.70;;;;;;4985981;28;20034;-65
2023/05/27 05:09:30;;;;;;;7.88;3.22;;;17.80;91.10;;;;;;4986617;28;20019;-65
2023/05/27 05:11:55;;;;;;;10.27;2.92;;;18.30;89.70;;;;;;4981430;28;20023;-65
2023/05/27 05:14:21;;;;;;;10.23;3.65;;;18.40;88.20;;;;;;4990380;28;20092;-66
2023/05/27 05:16:47;;;;;;;11.07;4.13;;;18.90;86.60;;;;;;4980112;28;20031;-65
2023/05/27 05:19:13;;;;;;;9.93;3.35;;;19.20;84.50;;;;;;4988871;28;20115;-65
2023/05/27 05:21:38;;;;;;;11.00;4.28;;;18.80;83.90;;;;;;4987521;28;20022;-66
2023/05/27 05:24:04;;;;;;;12.25;3.95;;;18.90;84.50;;;;;;4984496;28;20488;-65
2023/05/27 05:26:30;;;;;;;8.27;3.58;;;18.70;84.20;;;;;;4990964;28;20026;-65
2023/05/27 05:28:56;;;;;;;9.13;2.92;;;19.00;83.50;;;;;;4986236;28;20152;-64
2023/05/27 05:31:21;;;;;;;11.60;3.75;;;19.40;82.90;;;;;;4986142;28;20396;-66
2023/05/27 05:33:47;;;;;;;12.05;3.35;;;19.50;82.50;;;;;;4988317;28;20045;-65
2023/05/27 05:36:12;;;;;;;10.48;3.15;;;19.90;80.70;;;;;;4973253;28;20034;-65
2023/05/27 05:38:38;;;;;;;13.35;3.60;;;20.40;80.40;;;;;;4989019;28;20048;-65
2023/05/27 05:41:03;;;;;;;10.82;3.47;;;20.90;77.60;;;;;;4975655;28;20546;-65
2023/05/27 05:43:29;;;;;;;11.38;4.05;;;21.20;76.70;;;;;;4983894;28;20562;-66
2023/05/27 05:45:55;;;;;;;10.20;3.03;;;21.80;75.20;;;;;;4986118;28;20023;-65
2023/05/27 05:48:21;;;;;;;11.88;3.15;;;22.10;74.60;;;;;;4981387;28;20086;-66
2023/05/27 05:50:46;;;;;;;12.25;3.58;;;22.10;75.30;;;;;;4973597;28;20050;-65
2023/05/27 05:53:12;;;;;;;17.08;3.90;;;22.20;72.80;;;;;;4988877;28;20046;-66
2023/05/27 05:55:38;;;;;;;13.20;3.85;;;22.10;72.10;;;;;;4986833;28;20037;-66
2023/05/27 05:58:03;;;;;;;11.15;3.47;;;22.10;72.80;;;;;;4986522;28;20560;-66
2023/05/27 06:00:29;;;;;;;11.20;3.45;;;22.30;72.60;;;;;;4968305;28;20038;-66
2023/05/27 06:02:55;;;;;;;10.95;3.72;;;22.20;72.80;;;;;;4989706;28;20034;-65
2023/05/27 06:05:22;;;;;;;11.63;3.97;;;22.50;72.50;;;;;;4990455;28;20720;-66
2023/05/27 06:07:47;;;;;;;10.55;3.88;;;23.10;71.40;;;;;;4991342;28;20370;-66
2023/05/27 06:10:13;;;;;;;13.68;3.50;;;23.20;70.50;;;;;;4990916;28;20050;-66
2023/05/27 06:12:39;;;;;;;14.45;3.72;;;23.40;69.20;;;;;;4986867;28;20500;-66
2023/05/27 06:15:06;;;;;;;14.40;3.88;;;24.20;68.60;;;;;;4981277;28;20045;-65
2023/05/27 06:17:32;;;;;;;10.30;3.35;;;24.60;68.00;;;;;;4987548;28;20073;-67
2023/05/27 06:19:57;;;;;;;11.88;3.55;;;24.50;67.20;;;;;;4988658;28;20043;-65
2023/05/27 06:22:23;;;;;;;7.75;2.90;;;25.60;65.20;;;;;;4985530;28;20478;-66
2023/05/27 06:24:48;;;;;;;10.52;3.65;;;24.70;65.80;;;;;;4986454;28;20073;-65
2023/05/27 06:27:14;;;;;;;12.18;3.75;;;24.70;65.70;;;;;;4987861;28;20058;-67
2023/05/27 06:29:40;;;;;;;13.38;3.53;;;25.00;64.50;;;;;;4987889;28;20014;-66
2023/05/27 06:32:06;;;;;;;11.13;3.25;;;24.50;65.10;;;;;;4990833;28;20023;-66
2023/05/27 06:34:31;;;;;;;8.65;2.88;;;24.40;66.10;;;;;;4993317;28;20105;-66
2023/05/27 06:36:57;;;;;;;11.68;3.72;;;25.70;64.80;;;;;;4990269;28;20109;-62
2023/05/27 06:39:23;;;;;;;8.73;3.28;;;25.60;63.20;;;;;;4991993;28;20022;-65
2023/05/27 06:41:48;;;;;;;12.35;4.03;;;26.30;63.60;;;;;;4991903;28;20603;-65
2023/05/27 06:44:14;;;;;;;13.65;4.03;;;24.90;62.60;;;;;;4990440;28;20034;-65
2023/05/27 06:46:40;;;;;;;8.90;3.30;;;25.20;64.90;;;;;;4993025;28;20098;-65
2023/05/27 06:49:05;;;;;;;11.27;3.33;;;26.20;62.60;;;;;;4991530;28;20424;-65
2023/05/27 06:51:31;;;;;;;12.80;3.40;;;26.80;61.00;;;;;;4988278;28;20105;-65
2023/05/27 06:53:57;;;;;;;12.80;3.08;;;26.60;62.20;;;;;;4991040;28;20049;-65
2023/05/27 06:56:23;;;;;;;9.68;3.17;;;27.90;60.30;;;;;;4989740;28;20480;-65
2023/05/27 06:58:48;;;;;;;14.63;3.58;;;26.70;62.30;;;;;;4991987;28;20037;-65
2023/05/27 07:01:14;;;;;;;8.95;2.90;;;26.70;62.10;;;;;;4955889;28;20054;-65
2023/05/27 07:03:41;;;;;;;12.77;3.10;;;26.50;61.00;;;;;;4989550;28;20132;-65
2023/05/27 07:06:06;;;;;;;12.45;4.03;;;27.90;61.60;;;;;;4986912;28;20492;-64
2023/05/27 07:08:32;;;;;;;11.23;3.78;;;27.70;59.60;;;;;;4986669;28;20082;-65
2023/05/27 07:10:58;;;;;;;8.88;3.35;;;27.80;61.30;;;;;;4983650;28;20689;-65
2023/05/27 07:13:23;;;;;;;11.23;4.25;;;28.10;59.20;;;;;;4983139;28;20038;-65
2023/05/27 07:15:50;;;;;;;8.27;3.35;;;27.70;60.90;;;;;;4987769;28;20405;-65
2023/05/27 07:18:16;;;;;;;10.23;3.28;;;28.30;59.80;;;;;;4987364;28;20030;-65
2023/05/27 07:20:42;;;;;;;10.82;3.60;;;28.10;60.20;;;;;;4968878;28;20022;-65
2023/05/27 07:23:07;;;;;;;9.45;3.50;;;27.60;57.80;;;;;;4985329;28;20037;-65
2023/05/27 07:25:33;;;;;;;12.60;3.72;;;28.10;58.00;;;;;;4989208;28;20030;-65
2023/05/27 07:27:58;;;;;;;10.07;2.60;;;28.20;57.80;;;;;;4986789;28;20077;-65
2023/05/27 07:30:24;;;;;;;7.95;2.65;;;28.90;59.00;;;;;;4984520;28;20061;-65
2023/05/27 07:32:50;;;;;;;9.98;2.70;;;29.80;55.30;;;;;;4986923;28;20032;-66
2023/05/27 07:35:16;;;;;;;10.18;3.28;;;30.10;55.80;;;;;;4987626;28;20038;-65
2023/05/27 07:37:41;;;;;;;20.65;3.65;;;29.00;56.20;;;;;;4988836;28;20018;-65
2023/05/27 07:40:07;;;;;;;9.98;3.33;;;28.70;55.40;;;;;;4989301;28;20080;-65
2023/05/27 07:42:33;;;;;;;9.70;3.15;;;29.10;54.40;;;;;;4986130;28;20023;-66
2023/05/27 07:44:58;;;;;;;9.95;3.20;;;29.50;53.60;;;;;;4984176;28;20027;-67
2023/05/27 07:47:24;;;;;;;9.38;3.13;;;29.60;54.30;;;;;;4970123;28;20141;-65
2023/05/27 07:49:50;;;;;;;10.07;3.00;;;30.50;54.70;;;;;;4984561;28;20023;-65
2023/05/27 07:52:16;;;;;;;9.75;2.97;;;30.40;53.60;;;;;;4987961;28;20022;-62
2023/05/27 07:54:42;;;;;;;9.82;3.47;;;30.20;53.30;;;;;;4981447;28;20030;-65
2023/05/27 07:57:08;;;;;;;11.77;3.05;;;30.20;52.30;;;;;;4989624;28;20069;-64
2023/05/27 07:59:33;;;;;;;9.07;3.15;;;29.50;53.10;;;;;;4989470;28;20388;-65
2023/05/27 08:01:59;;;;;;;7.30;2.78;;;29.80;54.60;;;;;;4970920;28;20042;-66
2023/05/27 08:04:24;;;;;;;9.55;3.50;;;29.80;52.40;;;;;;4986577;28;20439;-65
2023/05/27 08:06:50;;;;;;;9.88;3.20;;;29.70;52.10;;;;;;4968408;28;20050;-65
2023/05/27 08:09:16;;;;;;;10.68;3.22;;;29.80;52.80;;;;;;4983378;28;20034;-65
2023/05/27 08:11:42;;;;;;;11.82;3.10;;;29.50;52.60;;;;;;4983606;28;20026;-65
2023/05/27 08:14:08;;;;;;;11.57;3.00;;;29.70;52.70;;;;;;4985019;28;20077;-64
2023/05/27 08:16:33;;;;;;;10.93;3.67;;;29.80;51.90;;;;;;4985367;28;20399;-65
2023/05/27 08:19:00;;;;;;;7.18;2.72;;;30.20;51.20;;;;;;4985103;28;20034;-66
2023/05/27 08:21:25;;;;;;;9.20;2.97;;;29.90;50.90;;;;;;4985020;28;20800;-66
2023/05/27 08:23:51;;;;;;;10.48;3.35;;;30.50;51.80;;;;;;4984633;28;20113;-66
2023/05/27 08:26:16;;;;;;;9.55;2.80;;;29.70;50.00;;;;;;4986321;28;20579;-65
2023/05/27 08:28:42;;;;;;;9.82;2.55;;;29.90;52.10;;;;;;4987011;28;20041;-65
2023/05/27 08:31:08;;;;;;;9.15;3.25;;;30.80;51.40;;;;;;4981608;28;20499;-65
2023/05/27 08:33:33;;;;;;;10.13;2.85;;;31.00;49.60;;;;;;4979581;28;20097;-65
2023/05/27 08:35:59;;;;;;;10.02;3.03;;;30.60;49.00;;;;;;4984249;28;20026;-65
2023/05/27 08:38:24;;;;;;;9.73;2.78;;;30.00;49.00;;;;;;4987548;28;20030;-65
2023/05/27 08:40:50;;;;;;;10.00;2.90;;;29.90;49.70;;;;;;4988541;28;20058;-65
2023/05/27 08:43:16;;;;;;;9.27;2.83;;;30.60;50.00;;;;;;4972769;28;20069;-65
2023/05/27 08:45:43;;;;;;;8.90;2.60;;;30.30;49.30;;;;;;4987138;28;20038;-65
2023/05/27 08:48:09;;;;;;;9.10;3.35;;;29.90;50.60;;;;;;4989245;28;20034;-66
2023/05/27 08:50:35;;;;;;;10.30;3.70;;;29.70;50.10;;;;;;4982382;28;20023;-66
2023/05/27 08:53:02;;;;;;;7.35;3.58;;;30.10;51.50;;;;;;4985899;28;20693;-65
2023/05/27 08:55:29;;;;;;;9.40;3.28;;;31.10;49.50;;;;;;4983566;28;20023;-65
2023/05/27 08:57:56;;;;;;;10.68;3.08;;;30.00;49.40;;;;;;4979574;28;20050;-65
2023/05/27 09:00:23;;;;;;;7.82;2.70;;;30.40;49.70;;;;;;4961065;28;20031;-65
2023/05/27 09:02:49;;;;;;;10.85;3.22;;;30.30;49.80;;;;;;4963305;28;20066;-65
2023/05/27 09:05:16;;;;;;;11.73;3.15;;;29.70;48.90;;;;;;4987499;28;20096;-65
2023/05/27 09:07:42;;;;;;;9.43;3.22;;;30.00;50.60;;;;;;4985764;28;20081;-65
2023/05/27 09:10:08;;;;;;;9.23;3.00;;;30.40;48.80;;;;;;4982908;28;20027;-66
2023/05/27 09:12:35;;;;;;;6.85;2.80;;;31.10;48.00;;;;;;4988186;28;20111;-66
2023/05/27 09:15:02;;;;;;;6.75;2.67;;;30.30;50.30;;;;;;4988678;28;20027;-65
2023/05/27 09:17:28;;;;;;;12.07;3.08;;;30.90;51.30;;;;;;4987085;28;20407;-65
2023/05/27 09:19:55;;;;;;;9.82;3.22;;;31.00;48.70;;;;;;4986701;28;20026;-66
2023/05/27 09:22:29;;;;;;;13.45;3.58;;;31.50;48.10;;;;;;4988709;28;20026;-65
2023/05/27 09:24:56;;;;;;;9.38;2.78;;;31.20;49.70;;;;;;4995362;28;20034;-65
2023/05/27 09:27:29;;;;;;;8.23;3.33;;;30.70;49.10;;;;;;4987973;28;20065;-66
2023/05/27 09:29:56;;;;;;;9.40;2.85;;;30.40;50.00;;;;;;4989764;28;20030;-65
2023/05/27 09:32:31;;;;;;;12.30;3.33;;;30.70;48.80;;;;;;4990558;28;20045;-65
2023/05/27 09:34:57;;;;;;;8.15;3.08;;;30.70;50.00;;;;;;4989396;28;20026;-66
2023/05/27 09:37:32;;;;;;;6.97;2.80;;;31.30;49.60;;;;;;4991826;28;20027;-66
2023/05/27 09:40:09;;;;;;;10.40;3.20;;;30.80;50.00;;;;;;4991784;28;20639;-66
2023/05/27 09:42:44;;;;;;;12.10;3.25;;;30.50;49.50;;;;;;4989157;28;20038;-66
2023/05/27 09:45:18;;;;;;;8.90;3.05;;;31.00;47.00;;;;;;4986247;28;20400;-65
2023/05/27 09:47:53;;;;;;;8.30;3.08;;;30.20;48.20;;;;;;4980850;28;20165;-64
2023/05/27 09:50:20;;;;;;;8.52;2.80;;;29.90;47.00;;;;;;4981565;28;20563;-66
2023/05/27 09:52:47;;;;;;;11.77;3.20;;;30.20;46.90;;;;;;4991704;28;20034;-66
2023/05/27 09:55:14;;;;;;;11.57;3.13;;;29.40;49.10;;;;;;4988307;28;20034;-65
2023/05/27 09:57:40;;;;;;;9.60;3.38;;;29.50;48.40;;;;;;4986649;28;20030;-65
2023/05/27 10:00:17;;;;;;;10.30;3.15;;;29.30;49.10;;;;;;4986059;28;20050;-64
2023/05/27 10:02:45;;;;;;;11.63;3.53;;;29.20;49.60;;;;;;4968961;28;20046;-65
2023/05/27 10:05:12;;;;;;;10.35;3.05;;;29.40;48.00;;;;;;4985203;28;20034;-65
2023/05/27 10:07:40;;;;;;;14.60;3.60;;;28.40;48.90;;;;;;4987443;28;20029;-65
2023/05/27 10:10:14;;;;;;;8.77;2.70;;;27.80;48.20;;;;;;4984643;28;20726;-65
2023/05/27 10:12:44;;;;;;;10.55;2.80;;;27.60;51.30;;;;;;4969497;28;20030;-65
2023/05/27 10:15:20;;;;;;;9.82;3.25;;;27.20;49.70;;;;;;4987311;28;20030;-65
2023/05/27 10:17:58;;;;;;;10.43;3.20;;;26.60;52.20;;;;;;4984511;28;20034;-63
2023/05/27 10:20:28;;;;;;;13.93;3.63;;;26.70;50.20;;;;;;4988712;28;20030;-64
2023/05/27 10:22:54;;;;;;;8.75;2.92;;;26.30;51.80;;;;;;4985176;28;20524;-65
2023/05/27 10:25:20;;;;;;;12.00;3.50;;;26.40;51.00;;;;;;4984259;28;20068;-64
2023/05/27 10:27:47;;;;;;;14.10;3.20;;;26.60;53.70;;;;;;4985921;28;20053;-65
2023/05/27 10:30:16;;;;;;;8.48;3.65;;;26.70;52.00;;;;;;4981345;28;20593;-65
2023/05/27 10:32:48;;;;;;;11.38;2.65;;;25.90;51.40;;;;;;4985563;28;20058;-64
2023/05/27 10:35:15;;;;;;;11.68;3.38;;;25.50;51.30;;;;;;4981629;28;20444;-64
2023/05/27 10:37:42;;;;;;;8.82;3.10;;;25.60;52.40;;;;;;4986466;28;20034;-65
2023/05/27 10:40:09;;;;;;;10.27;3.53;;;25.50;53.50;;;;;;4987350;28;20041;-64
2023/05/27 10:42:35;;;;;;;8.70;2.80;;;25.50;52.70;;;;;;4991006;28;20041;-65
2023/05/27 10:45:10;;;;;;;7.97;2.72;;;25.20;51.70;;;;;;4977814;28;20492;-65
2023/05/27 10:47:37;;;;;;;11.43;3.20;;;25.30;51.70;;;;;;4991073;28;20377;-65
2023/05/27 10:50:13;;;;;;;9.45;2.78;;;25.30;53.80;;;;;;4991032;28;20514;-65
2023/05/27 10:52:40;;;;;;;9.00;3.78;;;25.20;51.00;;;;;;4987054;28;20049;-65
2023/05/27 10:55:06;;;;;;;9.23;2.80;;;25.00;53.30;;;;;;4987102;28;20042;-65
2023/05/27 10:57:33;;;;;;;9.27;2.92;;;25.10;51.80;;;;;;4983645;28;20026;-66
2023/05/27 11:00:08;;;;;;;9.43;3.22;;;25.10;53.10;;;;;;4984527;28;20112;-65
2023/05/27 11:02:36;;;;;;;11.20;3.17;;;24.80;50.10;;;;;;4966305;28;20054;-64
2023/05/27 11:05:13;;;;;;;12.70;3.00;;;24.50;52.00;;;;;;4963202;28;20130;-65
2023/05/27 11:07:42;;;;;;;8.27;2.88;;;24.50;52.20;;;;;;4965170;28;20874;-65
2023/05/27 11:10:09;;;;;;;8.98;3.03;;;24.30;50.70;;;;;;4972187;28;20030;-65
2023/05/27 11:12:34;;;;;;;8.85;2.72;;;24.40;52.30;;;;;;4986331;28;20111;-65
2023/05/27 11:15:01;;;;;;;8.32;2.85;;;24.40;51.00;;;;;;4986507;28;20489;-65
2023/05/27 11:17:26;;;;;;;3.92;2.20;;;24.40;52.40;;;;;;4981894;28;20045;-64
2023/05/27 11:19:53;;;;;;;8.40;2.92;;;24.30;50.60;;;;;;4981134;28;20022;-65
2023/05/27 11:22:19;;;;;;;4.93;2.45;;;24.30;50.90;;;;;;4987423;28;20092;-64
2023/05/27 11:24:58;;;;;;;5.60;2.45;;;24.40;49.70;;;;;;4989503;28;20377;-64
2023/05/27 11:27:23;;;;;;;5.82;2.92;;;24.30;51.50;;;;;;4985009;28;20018;-65
2023/05/27 11:29:52;;;;;;;7.88;2.63;;;24.40;52.30;;;;;;4984674;28;20133;-63
2023/05/27 11:32:18;;;;;;;9.23;2.88;;;24.60;53.30;;;;;;4988206;28;20022;-62
2023/05/27 11:34:45;;;;;;;10.32;2.65;;;24.50;49.20;;;;;;4987568;28;20032;-65
2023/05/27 11:37:11;;;;;;;8.02;2.60;;;24.10;52.00;;;;;;4985087;28;20034;-64
2023/05/27 11:39:48;;;;;;;8.32;2.67;;;24.30;52.10;;;;;;4985447;28;20082;-65
2023/05/27 11:42:14;;;;;;;10.65;3.47;;;24.50;52.10;;;;;;4978753;28;20122;-64
2023/05/27 11:44:50;;;;;;;9.55;2.75;;;24.60;50.80;;;;;;4985263;28;20109;-64
2023/05/27 11:47:16;;;;;;;6.68;2.60;;;24.50;49.40;;;;;;4985636;28;20030;-65
2023/05/27 11:49:42;;;;;;;7.15;2.70;;;24.50;51.30;;;;;;4988958;28;20030;-64
2023/05/27 11:52:10;;;;;;;6.35;3.05;;;24.60;50.50;;;;;;4985370;28;20026;-64
2023/05/27 11:54:38;;;;;;;11.48;2.67;;;24.20;48.90;;;;;;4989204;28;20113;-64
2023/05/27 11:57:06;;;;;;;13.32;2.92;;;24.20;50.00;;;;;;4979972;28;20037;-65
2023/05/27 11:59:34;;;;;;;5.25;2.40;;;24.10;47.90;;;;;;4991233;28;20014;-64
2023/05/27 12:02:00;;;;;;;10.93;3.30;;;24.00;49.20;;;;;;4961368;28;20096;-64
2023/05/27 12:04:25;;;;;;;8.85;3.33;;;23.70;48.70;;;;;;4975854;28;20031;-65
2023/05/27 12:06:51;;;;;;;6.47;2.95;;;23.80;48.80;;;;;;4982467;28;20101;-64
2023/05/27 12:09:17;;;;;;;5.43;2.45;;;23.80;48.90;;;;;;4982354;28;20035;-64
2023/05/27 12:11:42;;;;;;;5.65;2.60;;;23.80;48.90;;;;;;4969453;28;20022;-65
2023/05/27 12:14:08;;;;;;;8.52;2.38;;;23.60;49.20;;;;;;4981581;28;20058;-64
2023/05/27 12:16:34;;;;;;;4.88;2.38;;;23.70;50.40;;;;;;4978264;28;20022;-64
2023/05/27 12:19:00;;;;;;;7.80;3.80;;;23.90;50.40;;;;;;4989937;28;20137;-64
2023/05/27 12:21:26;;;;;;;8.63;3.28;;;23.90;48.60;;;;;;4988040;28;20519;-64
2023/05/27 12:23:51;;;;;;;5.93;2.58;;;23.90;50.30;;;;;;4986472;28;20026;-64
2023/05/27 12:26:17;;;;;;;9.95;2.97;;;23.90;49.50;;;;;;4985197;28;20025;-64
2023/05/27 12:28:44;;;;;;;7.85;3.78;;;23.80;50.50;;;;;;4989314;28;20015;-64
2023/05/27 12:31:09;;;;;;;4.65;1.98;;;23.70;49.00;;;;;;4988684;28;20027;-64
2023/05/27 12:33:35;;;;;;;7.82;2.75;;;23.70;49.00;;;;;;4988438;28;20015;-65
2023/05/27 12:36:02;;;;;;;4.30;2.15;;;23.70;48.10;;;;;;4963301;28;20105;-65
2023/05/27 12:38:27;;;;;;;5.70;2.22;;;23.70;49.80;;;;;;4985739;28;20117;-63
2023/05/27 12:40:55;;;;;;;6.78;2.00;;;23.70;48.30;;;;;;4986825;28;20480;-65